sensor_id;sensor_type;location;lat;lon;timestamp;P1;durP1;ratioP1;P2;durP2;ratioP2
6671;SDS011;3372;48.690;12.362;2023-11-19T00:02:08;3.42;;;2.25;;
6671;SDS011;3372;48.690;12.362;2023-11-19T00:04:37;3.47;;;1.92;;
6671;SDS011;3372;48.690;12.362;2023-11-19T00:07:04;3.75;;;1.88;;
6671;SDS011;3372;48.690;12.362;2023-11-19T00:09:31;3.00;;;1.98;;
6671;SDS011;3372;48.690;12.362;2023-11-19T00:11:58;3.10;;;2.33;;
6671;SDS011;3372;48.690;12.362;2023-11-19T00:14:25;3.53;;;1.83;;
6671;SDS011;3372;48.690;12.362;2023-11-19T00:16:51;4.50;;;2.80;;
6671;SDS011;3372;48.690;12.362;2023-11-19T00:19:17;3.85;;;2.78;;
6671;SDS011;3372;48.690;12.362;2023-11-19T00:21:43;2.80;;;1.85;;
6671;SDS011;3372;48.690;12.362;2023-11-19T00:24:09;3.28;;;2.78;;
6671;SDS011;3372;48.690;12.362;2023-11-19T00:26:37;3.00;;;2.33;;
6671;SDS011;3372;48.690;12.362;2023-11-19T00:29:03;3.17;;;2.33;;
6671;SDS011;3372;48.690;12.362;2023-11-19T00:31:29;3.47;;;2.67;;
6671;SDS011;3372;48.690;12.362;2023-11-19T00:33:55;5.05;;;3.00;;
6671;SDS011;3372;48.690;12.362;2023-11-19T00:36:20;3.92;;;2.88;;
6671;SDS011;3372;48.690;12.362;2023-11-19T00:38:49;3.55;;;2.78;;
6671;SDS011;3372;48.690;12.362;2023-11-19T00:41:15;3.97;;;2.92;;
6671;SDS011;3372;48.690;12.362;2023-11-19T00:43:41;3.55;;;3.03;;
6671;SDS011;3372;48.690;12.362;2023-11-19T00:46:07;3.63;;;2.60;;
6671;SDS011;3372;48.690;12.362;2023-11-19T00:48:35;6.55;;;3.03;;
6671;SDS011;3372;48.690;12.362;2023-11-19T00:51:01;3.67;;;2.53;;
6671;SDS011;3372;48.690;12.362;2023-11-19T00:53:27;4.10;;;3.50;;
6671;SDS011;3372;48.690;12.362;2023-11-19T00:55:53;5.38;;;3.53;;
6671;SDS011;3372;48.690;12.362;2023-11-19T00:58:18;4.10;;;3.35;;
6671;SDS011;3372;48.690;12.362;2023-11-19T01:00:44;4.60;;;3.40;;
6671;SDS011;3372;48.690;12.362;2023-11-19T01:03:10;4.50;;;3.50;;
6671;SDS011;3372;48.690;12.362;2023-11-19T01:05:36;4.22;;;3.33;;
6671;SDS011;3372;48.690;12.362;2023-11-19T01:08:02;4.10;;;3.20;;
6671;SDS011;3372;48.690;12.362;2023-11-19T01:10:29;4.05;;;3.47;;
6671;SDS011;3372;48.690;12.362;2023-11-19T01:12:55;4.40;;;3.47;;
6671;SDS011;3372;48.690;12.362;2023-11-19T01:15:20;4.20;;;3.25;;
6671;SDS011;3372;48.690;12.362;2023-11-19T01:17:46;4.18;;;3.40;;
6671;SDS011;3372;48.690;12.362;2023-11-19T01:20:12;6.25;;;3.42;;
6671;SDS011;3372;48.690;12.362;2023-11-19T01:22:38;3.45;;;2.75;;
6671;SDS011;3372;48.690;12.362;2023-11-19T01:25:05;4.10;;;3.35;;
6671;SDS011;3372;48.690;12.362;2023-11-19T01:27:31;4.15;;;3.30;;
6671;SDS011;3372;48.690;12.362;2023-11-19T01:30:01;3.92;;;3.20;;
6671;SDS011;3372;48.690;12.362;2023-11-19T01:32:31;3.55;;;2.65;;
6671;SDS011;3372;48.690;12.362;2023-11-19T01:34:57;4.93;;;2.90;;
6671;SDS011;3372;48.690;12.362;2023-11-19T01:37:23;2.92;;;2.20;;
6671;SDS011;3372;48.690;12.362;2023-11-19T01:39:48;3.25;;;2.42;;
6671;SDS011;3372;48.690;12.362;2023-11-19T01:42:14;4.78;;;2.55;;
6671;SDS011;3372;48.690;12.362;2023-11-19T01:44:40;2.95;;;2.35;;
6671;SDS011;3372;48.690;12.362;2023-11-19T01:47:06;3.15;;;2.47;;
6671;SDS011;3372;48.690;12.362;2023-11-19T01:51:59;2.35;;;1.73;;
6671;SDS011;3372;48.690;12.362;2023-11-19T01:54:25;3.10;;;1.88;;
6671;SDS011;3372;48.690;12.362;2023-11-19T01:56:52;2.63;;;1.52;;
6671;SDS011;3372;48.690;12.362;2023-11-19T01:59:21;2.45;;;1.73;;
6671;SDS011;3372;48.690;12.362;2023-11-19T02:01:51;2.95;;;1.73;;
6671;SDS011;3372;48.690;12.362;2023-11-19T02:04:19;7.20;;;2.03;;
6671;SDS011;3372;48.690;12.362;2023-11-19T02:06:45;2.45;;;1.63;;
6671;SDS011;3372;48.690;12.362;2023-11-19T02:09:13;2.17;;;1.50;;
6671;SDS011;3372;48.690;12.362;2023-11-19T02:11:42;2.40;;;1.33;;
6671;SDS011;3372;48.690;12.362;2023-11-19T02:14:07;2.63;;;1.27;;
6671;SDS011;3372;48.690;12.362;2023-11-19T02:16:33;1.95;;;1.13;;
6671;SDS011;3372;48.690;12.362;2023-11-19T02:18:59;2.08;;;1.02;;
6671;SDS011;3372;48.690;12.362;2023-11-19T02:21:25;2.05;;;1.25;;
6671;SDS011;3372;48.690;12.362;2023-11-19T02:23:51;1.73;;;1.20;;
6671;SDS011;3372;48.690;12.362;2023-11-19T02:28:53;2.08;;;1.15;;
6671;SDS011;3372;48.690;12.362;2023-11-19T02:31:20;2.17;;;1.33;;
6671;SDS011;3372;48.690;12.362;2023-11-19T02:33:47;2.00;;;1.30;;
6671;SDS011;3372;48.690;12.362;2023-11-19T02:36:15;2.40;;;1.33;;
6671;SDS011;3372;48.690;12.362;2023-11-19T02:38:41;1.90;;;1.23;;
6671;SDS011;3372;48.690;12.362;2023-11-19T02:41:07;2.33;;;1.75;;
6671;SDS011;3372;48.690;12.362;2023-11-19T02:43:33;2.20;;;1.42;;
6671;SDS011;3372;48.690;12.362;2023-11-19T02:46:00;2.15;;;1.30;;
6671;SDS011;3372;48.690;12.362;2023-11-19T02:48:26;2.40;;;1.67;;
6671;SDS011;3372;48.690;12.362;2023-11-19T02:50:52;2.33;;;1.35;;
6671;SDS011;3372;48.690;12.362;2023-11-19T02:53:17;1.95;;;1.42;;
6671;SDS011;3372;48.690;12.362;2023-11-19T02:55:46;2.20;;;1.45;;
6671;SDS011;3372;48.690;12.362;2023-11-19T02:58:13;2.00;;;1.20;;
6671;SDS011;3372;48.690;12.362;2023-11-19T03:00:48;2.40;;;1.55;;
6671;SDS011;3372;48.690;12.362;2023-11-19T03:03:21;2.58;;;1.75;;
6671;SDS011;3372;48.690;12.362;2023-11-19T03:05:51;2.33;;;1.63;;
6671;SDS011;3372;48.690;12.362;2023-11-19T03:08:16;2.25;;;1.50;;
6671;SDS011;3372;48.690;12.362;2023-11-19T03:10:42;2.53;;;1.73;;
6671;SDS011;3372;48.690;12.362;2023-11-19T03:13:12;2.60;;;1.48;;
6671;SDS011;3372;48.690;12.362;2023-11-19T03:15:39;2.47;;;2.10;;
6671;SDS011;3372;48.690;12.362;2023-11-19T03:18:04;2.53;;;1.95;;
6671;SDS011;3372;48.690;12.362;2023-11-19T03:20:30;2.30;;;1.35;;
6671;SDS011;3372;48.690;12.362;2023-11-19T03:22:57;2.40;;;1.63;;
6671;SDS011;3372;48.690;12.362;2023-11-19T03:25:27;2.70;;;1.60;;
6671;SDS011;3372;48.690;12.362;2023-11-19T03:27:58;2.03;;;1.63;;
6671;SDS011;3372;48.690;12.362;2023-11-19T03:30:24;2.38;;;1.13;;
6671;SDS011;3372;48.690;12.362;2023-11-19T03:32:50;3.50;;;1.08;;
6671;SDS011;3372;48.690;12.362;2023-11-19T03:35:16;2.10;;;1.40;;
6671;SDS011;3372;48.690;12.362;2023-11-19T03:37:41;2.10;;;1.38;;
6671;SDS011;3372;48.690;12.362;2023-11-19T03:40:08;2.00;;;1.30;;
6671;SDS011;3372;48.690;12.362;2023-11-19T03:42:35;2.13;;;1.35;;
6671;SDS011;3372;48.690;12.362;2023-11-19T03:45:00;1.95;;;1.15;;
6671;SDS011;3372;48.690;12.362;2023-11-19T03:47:28;2.20;;;1.42;;
6671;SDS011;3372;48.690;12.362;2023-11-19T03:49:54;2.10;;;1.48;;
6671;SDS011;3372;48.690;12.362;2023-11-19T03:52:19;2.40;;;1.35;;
6671;SDS011;3372;48.690;12.362;2023-11-19T03:54:45;2.22;;;1.42;;
6671;SDS011;3372;48.690;12.362;2023-11-19T03:57:11;2.30;;;1.35;;
6671;SDS011;3372;48.690;12.362;2023-11-19T03:59:38;2.70;;;1.63;;
6671;SDS011;3372;48.690;12.362;2023-11-19T04:02:04;2.70;;;1.83;;
6671;SDS011;3372;48.690;12.362;2023-11-19T04:04:29;2.28;;;1.42;;
6671;SDS011;3372;48.690;12.362;2023-11-19T04:06:55;2.17;;;1.42;;
6671;SDS011;3372;48.690;12.362;2023-11-19T04:09:21;1.98;;;1.40;;
6671;SDS011;3372;48.690;12.362;2023-11-19T04:11:47;2.83;;;1.50;;
6671;SDS011;3372;48.690;12.362;2023-11-19T04:14:13;2.22;;;1.42;;
6671;SDS011;3372;48.690;12.362;2023-11-19T04:16:39;2.22;;;1.52;;
6671;SDS011;3372;48.690;12.362;2023-11-19T04:19:05;3.15;;;1.80;;
6671;SDS011;3372;48.690;12.362;2023-11-19T04:21:31;2.30;;;1.40;;
6671;SDS011;3372;48.690;12.362;2023-11-19T04:23:57;2.80;;;1.60;;
6671;SDS011;3372;48.690;12.362;2023-11-19T04:26:23;2.20;;;1.23;;
6671;SDS011;3372;48.690;12.362;2023-11-19T04:28:49;2.10;;;1.15;;
6671;SDS011;3372;48.690;12.362;2023-11-19T04:31:15;1.88;;;1.05;;
6671;SDS011;3372;48.690;12.362;2023-11-19T04:33:43;2.58;;;1.45;;
6671;SDS011;3372;48.690;12.362;2023-11-19T04:36:09;2.13;;;1.42;;
6671;SDS011;3372;48.690;12.362;2023-11-19T04:38:35;4.38;;;1.63;;
6671;SDS011;3372;48.690;12.362;2023-11-19T04:41:03;2.38;;;1.70;;
6671;SDS011;3372;48.690;12.362;2023-11-19T04:43:30;2.90;;;1.92;;
6671;SDS011;3372;48.690;12.362;2023-11-19T04:45:56;2.67;;;1.73;;
6671;SDS011;3372;48.690;12.362;2023-11-19T04:48:22;2.80;;;1.83;;
6671;SDS011;3372;48.690;12.362;2023-11-19T04:50:48;2.45;;;1.60;;
6671;SDS011;3372;48.690;12.362;2023-11-19T04:53:16;2.28;;;1.40;;
6671;SDS011;3372;48.690;12.362;2023-11-19T04:55:42;2.50;;;1.67;;
6671;SDS011;3372;48.690;12.362;2023-11-19T04:58:07;2.65;;;1.70;;
6671;SDS011;3372;48.690;12.362;2023-11-19T05:00:34;2.40;;;1.42;;
6671;SDS011;3372;48.690;12.362;2023-11-19T05:02:59;2.40;;;1.52;;
6671;SDS011;3372;48.690;12.362;2023-11-19T05:05:25;3.10;;;1.77;;
6671;SDS011;3372;48.690;12.362;2023-11-19T05:07:52;3.15;;;2.28;;
6671;SDS011;3372;48.690;12.362;2023-11-19T05:10:17;2.95;;;1.90;;
6671;SDS011;3372;48.690;12.362;2023-11-19T05:12:43;2.88;;;1.63;;
6671;SDS011;3372;48.690;12.362;2023-11-19T05:15:08;3.00;;;2.08;;
6671;SDS011;3372;48.690;12.362;2023-11-19T05:17:34;3.08;;;2.03;;
6671;SDS011;3372;48.690;12.362;2023-11-19T05:20:02;3.25;;;2.20;;
6671;SDS011;3372;48.690;12.362;2023-11-19T05:22:28;3.20;;;2.00;;
6671;SDS011;3372;48.690;12.362;2023-11-19T05:24:53;3.53;;;2.28;;
6671;SDS011;3372;48.690;12.362;2023-11-19T05:27:20;3.08;;;1.83;;
6671;SDS011;3372;48.690;12.362;2023-11-19T05:29:48;2.78;;;1.85;;
6671;SDS011;3372;48.690;12.362;2023-11-19T05:32:14;3.40;;;2.40;;
6671;SDS011;3372;48.690;12.362;2023-11-19T05:34:40;3.42;;;2.22;;
6671;SDS011;3372;48.690;12.362;2023-11-19T05:37:05;3.67;;;2.33;;
6671;SDS011;3372;48.690;12.362;2023-11-19T05:39:31;4.22;;;2.85;;
6671;SDS011;3372;48.690;12.362;2023-11-19T05:41:57;3.97;;;2.72;;
6671;SDS011;3372;48.690;12.362;2023-11-19T05:44:23;3.90;;;2.72;;
6671;SDS011;3372;48.690;12.362;2023-11-19T05:46:48;3.72;;;2.67;;
6671;SDS011;3372;48.690;12.362;2023-11-19T05:49:14;3.72;;;2.33;;
6671;SDS011;3372;48.690;12.362;2023-11-19T05:51:39;4.47;;;2.60;;
6671;SDS011;3372;48.690;12.362;2023-11-19T05:54:09;4.10;;;3.00;;
6671;SDS011;3372;48.690;12.362;2023-11-19T05:56:35;5.68;;;3.95;;
6671;SDS011;3372;48.690;12.362;2023-11-19T05:59:01;3.78;;;2.88;;
6671;SDS011;3372;48.690;12.362;2023-11-19T06:01:28;4.25;;;2.72;;
6671;SDS011;3372;48.690;12.362;2023-11-19T06:03:54;4.28;;;2.83;;
6671;SDS011;3372;48.690;12.362;2023-11-19T06:06:20;5.43;;;3.95;;
6671;SDS011;3372;48.690;12.362;2023-11-19T06:08:46;5.07;;;3.45;;
6671;SDS011;3372;48.690;12.362;2023-11-19T06:11:12;4.70;;;3.10;;
6671;SDS011;3372;48.690;12.362;2023-11-19T06:13:44;4.72;;;2.90;;
6671;SDS011;3372;48.690;12.362;2023-11-19T06:16:10;5.75;;;3.60;;
6671;SDS011;3372;48.690;12.362;2023-11-19T06:18:41;6.28;;;3.28;;
6671;SDS011;3372;48.690;12.362;2023-11-19T06:21:08;4.47;;;3.15;;
6671;SDS011;3372;48.690;12.362;2023-11-19T06:23:34;5.10;;;3.55;;
6671;SDS011;3372;48.690;12.362;2023-11-19T06:26:02;5.07;;;3.53;;
6671;SDS011;3372;48.690;12.362;2023-11-19T06:28:29;5.10;;;3.63;;
6671;SDS011;3372;48.690;12.362;2023-11-19T06:30:54;4.45;;;3.30;;
6671;SDS011;3372;48.690;12.362;2023-11-19T06:33:24;5.30;;;3.97;;
6671;SDS011;3372;48.690;12.362;2023-11-19T06:35:50;5.20;;;3.90;;
6671;SDS011;3372;48.690;12.362;2023-11-19T06:38:15;4.80;;;3.08;;
6671;SDS011;3372;48.690;12.362;2023-11-19T06:40:41;5.03;;;3.55;;
6671;SDS011;3372;48.690;12.362;2023-11-19T06:43:06;5.72;;;3.90;;
6671;SDS011;3372;48.690;12.362;2023-11-19T06:45:35;6.10;;;4.43;;
6671;SDS011;3372;48.690;12.362;2023-11-19T06:48:07;6.03;;;4.10;;
6671;SDS011;3372;48.690;12.362;2023-11-19T06:50:33;5.60;;;3.33;;
6671;SDS011;3372;48.690;12.362;2023-11-19T06:53:02;4.70;;;3.33;;
6671;SDS011;3372;48.690;12.362;2023-11-19T06:55:27;5.60;;;3.75;;
6671;SDS011;3372;48.690;12.362;2023-11-19T06:57:53;4.97;;;3.45;;
6671;SDS011;3372;48.690;12.362;2023-11-19T07:00:19;7.97;;;3.67;;
6671;SDS011;3372;48.690;12.362;2023-11-19T07:02:46;6.05;;;3.85;;
6671;SDS011;3372;48.690;12.362;2023-11-19T07:05:12;5.38;;;3.65;;
6671;SDS011;3372;48.690;12.362;2023-11-19T07:07:38;5.75;;;3.30;;
6671;SDS011;3372;48.690;12.362;2023-11-19T07:10:05;5.45;;;3.55;;
6671;SDS011;3372;48.690;12.362;2023-11-19T07:12:33;5.90;;;4.15;;
6671;SDS011;3372;48.690;12.362;2023-11-19T07:15:00;6.05;;;4.18;;
6671;SDS011;3372;48.690;12.362;2023-11-19T07:19:55;5.57;;;3.90;;
6671;SDS011;3372;48.690;12.362;2023-11-19T07:22:24;6.47;;;4.55;;
6671;SDS011;3372;48.690;12.362;2023-11-19T07:24:51;6.93;;;4.63;;
6671;SDS011;3372;48.690;12.362;2023-11-19T07:27:18;8.25;;;5.22;;
6671;SDS011;3372;48.690;12.362;2023-11-19T07:29:47;8.90;;;5.78;;
6671;SDS011;3372;48.690;12.362;2023-11-19T07:32:13;8.30;;;5.80;;
6671;SDS011;3372;48.690;12.362;2023-11-19T07:34:38;9.10;;;6.53;;
6671;SDS011;3372;48.690;12.362;2023-11-19T07:37:07;9.02;;;6.20;;
6671;SDS011;3372;48.690;12.362;2023-11-19T07:39:33;13.15;;;9.13;;
6671;SDS011;3372;48.690;12.362;2023-11-19T07:42:00;16.80;;;13.13;;
6671;SDS011;3372;48.690;12.362;2023-11-19T07:44:26;11.50;;;8.18;;
6671;SDS011;3372;48.690;12.362;2023-11-19T07:46:51;9.60;;;7.10;;
6671;SDS011;3372;48.690;12.362;2023-11-19T07:49:17;10.10;;;8.27;;
6671;SDS011;3372;48.690;12.362;2023-11-19T07:51:42;9.48;;;6.63;;
6671;SDS011;3372;48.690;12.362;2023-11-19T07:54:08;9.95;;;6.72;;
6671;SDS011;3372;48.690;12.362;2023-11-19T07:56:34;10.70;;;7.63;;
6671;SDS011;3372;48.690;12.362;2023-11-19T07:59:01;10.07;;;6.60;;
6671;SDS011;3372;48.690;12.362;2023-11-19T08:01:27;10.98;;;7.72;;
6671;SDS011;3372;48.690;12.362;2023-11-19T08:03:52;12.05;;;8.63;;
6671;SDS011;3372;48.690;12.362;2023-11-19T08:06:18;13.30;;;8.60;;
6671;SDS011;3372;48.690;12.362;2023-11-19T08:08:44;10.60;;;7.68;;
6671;SDS011;3372;48.690;12.362;2023-11-19T08:11:10;9.70;;;7.63;;
6671;SDS011;3372;48.690;12.362;2023-11-19T08:13:35;9.77;;;7.35;;
6671;SDS011;3372;48.690;12.362;2023-11-19T08:16:01;9.98;;;6.82;;
6671;SDS011;3372;48.690;12.362;2023-11-19T08:18:27;8.90;;;6.30;;
6671;SDS011;3372;48.690;12.362;2023-11-19T08:20:52;8.88;;;6.25;;
6671;SDS011;3372;48.690;12.362;2023-11-19T08:23:19;8.30;;;6.32;;
6671;SDS011;3372;48.690;12.362;2023-11-19T08:25:45;9.05;;;5.80;;
6671;SDS011;3372;48.690;12.362;2023-11-19T08:28:10;9.07;;;6.55;;
6671;SDS011;3372;48.690;12.362;2023-11-19T08:30:36;7.82;;;5.43;;
6671;SDS011;3372;48.690;12.362;2023-11-19T08:33:01;10.25;;;6.78;;
6671;SDS011;3372;48.690;12.362;2023-11-19T08:35:31;8.60;;;6.63;;
6671;SDS011;3372;48.690;12.362;2023-11-19T08:37:57;13.15;;;6.82;;
6671;SDS011;3372;48.690;12.362;2023-11-19T08:40:24;10.55;;;6.10;;
6671;SDS011;3372;48.690;12.362;2023-11-19T08:42:51;9.25;;;6.28;;
6671;SDS011;3372;48.690;12.362;2023-11-19T08:45:17;12.07;;;9.05;;
6671;SDS011;3372;48.690;12.362;2023-11-19T08:47:42;11.13;;;7.72;;
6671;SDS011;3372;48.690;12.362;2023-11-19T08:50:10;11.10;;;9.13;;
6671;SDS011;3372;48.690;12.362;2023-11-19T08:52:36;12.95;;;9.10;;
6671;SDS011;3372;48.690;12.362;2023-11-19T08:55:02;8.93;;;6.60;;
6671;SDS011;3372;48.690;12.362;2023-11-19T08:57:31;8.98;;;6.25;;
6671;SDS011;3372;48.690;12.362;2023-11-19T08:59:58;7.05;;;5.90;;
6671;SDS011;3372;48.690;12.362;2023-11-19T09:02:24;7.88;;;5.40;;
6671;SDS011;3372;48.690;12.362;2023-11-19T09:04:50;9.93;;;6.22;;
6671;SDS011;3372;48.690;12.362;2023-11-19T09:07:15;6.18;;;4.72;;
6671;SDS011;3372;48.690;12.362;2023-11-19T09:09:41;5.55;;;3.47;;
6671;SDS011;3372;48.690;12.362;2023-11-19T09:12:07;5.43;;;3.70;;
6671;SDS011;3372;48.690;12.362;2023-11-19T09:14:32;5.72;;;3.92;;
6671;SDS011;3372;48.690;12.362;2023-11-19T09:16:58;6.65;;;3.67;;
6671;SDS011;3372;48.690;12.362;2023-11-19T09:19:24;4.45;;;2.88;;
6671;SDS011;3372;48.690;12.362;2023-11-19T09:21:54;2.90;;;1.88;;
6671;SDS011;3372;48.690;12.362;2023-11-19T09:24:19;4.13;;;2.33;;
6671;SDS011;3372;48.690;12.362;2023-11-19T09:26:45;3.63;;;2.83;;
6671;SDS011;3372;48.690;12.362;2023-11-19T09:29:11;2.63;;;1.63;;
6671;SDS011;3372;48.690;12.362;2023-11-19T09:31:39;2.80;;;2.15;;
6671;SDS011;3372;48.690;12.362;2023-11-19T09:34:05;2.63;;;1.80;;
6671;SDS011;3372;48.690;12.362;2023-11-19T09:36:31;2.15;;;1.40;;
6671;SDS011;3372;48.690;12.362;2023-11-19T09:38:56;2.28;;;1.40;;
6671;SDS011;3372;48.690;12.362;2023-11-19T09:41:24;2.60;;;1.23;;
6671;SDS011;3372;48.690;12.362;2023-11-19T09:43:53;2.65;;;1.30;;
6671;SDS011;3372;48.690;12.362;2023-11-19T09:46:18;3.20;;;1.05;;
6671;SDS011;3372;48.690;12.362;2023-11-19T09:48:46;1.98;;;1.17;;
6671;SDS011;3372;48.690;12.362;2023-11-19T09:51:13;2.30;;;1.05;;
6671;SDS011;3372;48.690;12.362;2023-11-19T09:53:39;3.03;;;1.17;;
6671;SDS011;3372;48.690;12.362;2023-11-19T09:56:05;3.90;;;1.17;;
6671;SDS011;3372;48.690;12.362;2023-11-19T09:58:32;2.00;;;1.00;;
6671;SDS011;3372;48.690;12.362;2023-11-19T10:00:59;1.80;;;0.88;;
6671;SDS011;3372;48.690;12.362;2023-11-19T10:03:30;2.17;;;0.90;;
6671;SDS011;3372;48.690;12.362;2023-11-19T10:06:08;1.95;;;0.63;;
6671;SDS011;3372;48.690;12.362;2023-11-19T10:08:38;1.80;;;0.70;;
6671;SDS011;3372;48.690;12.362;2023-11-19T10:11:05;1.45;;;0.55;;
6671;SDS011;3372;48.690;12.362;2023-11-19T10:13:35;1.45;;;0.90;;
6671;SDS011;3372;48.690;12.362;2023-11-19T10:16:07;1.52;;;0.77;;
6671;SDS011;3372;48.690;12.362;2023-11-19T10:18:34;4.78;;;2.15;;
6671;SDS011;3372;48.690;12.362;2023-11-19T10:21:06;1.77;;;0.70;;
6671;SDS011;3372;48.690;12.362;2023-11-19T10:23:47;1.70;;;0.73;;
6671;SDS011;3372;48.690;12.362;2023-11-19T10:26:17;1.15;;;0.55;;
6671;SDS011;3372;48.690;12.362;2023-11-19T10:28:45;1.80;;;0.75;;
6671;SDS011;3372;48.690;12.362;2023-11-19T10:31:18;5.80;;;1.50;;
6671;SDS011;3372;48.690;12.362;2023-11-19T10:33:45;3.20;;;1.02;;
6671;SDS011;3372;48.690;12.362;2023-11-19T10:36:11;3.92;;;2.40;;
6671;SDS011;3372;48.690;12.362;2023-11-19T10:38:38;2.10;;;1.02;;
6671;SDS011;3372;48.690;12.362;2023-11-19T10:41:04;2.00;;;0.30;;
6671;SDS011;3372;48.690;12.362;2023-11-19T10:43:42;1.08;;;0.40;;
6671;SDS011;3372;48.690;12.362;2023-11-19T10:46:13;1.38;;;0.57;;
6671;SDS011;3372;48.690;12.362;2023-11-19T10:48:39;4.85;;;2.63;;
6671;SDS011;3372;48.690;12.362;2023-11-19T10:51:05;1.10;;;0.45;;
6671;SDS011;3372;48.690;12.362;2023-11-19T10:53:39;1.02;;;0.52;;
6671;SDS011;3372;48.690;12.362;2023-11-19T10:56:10;1.10;;;0.43;;
6671;SDS011;3372;48.690;12.362;2023-11-19T10:58:36;1.60;;;0.80;;
6671;SDS011;3372;48.690;12.362;2023-11-19T11:01:11;0.73;;;0.32;;
6671;SDS011;3372;48.690;12.362;2023-11-19T11:03:41;1.05;;;0.45;;
6671;SDS011;3372;48.690;12.362;2023-11-19T11:06:10;0.80;;;0.40;;
6671;SDS011;3372;48.690;12.362;2023-11-19T11:08:38;1.70;;;0.68;;
6671;SDS011;3372;48.690;12.362;2023-11-19T11:11:05;1.30;;;0.50;;
6671;SDS011;3372;48.690;12.362;2023-11-19T11:13:33;0.75;;;0.28;;
6671;SDS011;3372;48.690;12.362;2023-11-19T11:16:00;1.83;;;0.65;;
6671;SDS011;3372;48.690;12.362;2023-11-19T11:18:29;1.50;;;0.63;;
6671;SDS011;3372;48.690;12.362;2023-11-19T11:21:03;2.70;;;0.47;;
6671;SDS011;3372;48.690;12.362;2023-11-19T11:23:40;3.85;;;2.28;;
6671;SDS011;3372;48.690;12.362;2023-11-19T11:29:01;5.88;;;2.60;;
6671;SDS011;3372;48.690;12.362;2023-11-19T11:37:10;4.47;;;2.28;;
6671;SDS011;3372;48.690;12.362;2023-11-19T11:39:57;3.03;;;1.83;;
6671;SDS011;3372;48.690;12.362;2023-11-19T11:45:02;2.45;;;0.47;;
6671;SDS011;3372;48.690;12.362;2023-11-19T11:50:09;2.30;;;1.23;;
6671;SDS011;3372;48.690;12.362;2023-11-19T11:55:34;1.50;;;0.57;;
6671;SDS011;3372;48.690;12.362;2023-11-19T11:58:07;3.25;;;1.42;;
6671;SDS011;3372;48.690;12.362;2023-11-19T12:00:37;1.15;;;0.63;;
6671;SDS011;3372;48.690;12.362;2023-11-19T12:03:05;1.90;;;0.70;;
6671;SDS011;3372;48.690;12.362;2023-11-19T12:05:32;2.80;;;0.75;;
6671;SDS011;3372;48.690;12.362;2023-11-19T12:08:03;2.15;;;0.50;;
6671;SDS011;3372;48.690;12.362;2023-11-19T12:10:33;1.33;;;0.52;;
6671;SDS011;3372;48.690;12.362;2023-11-19T12:13:07;1.17;;;0.38;;
6671;SDS011;3372;48.690;12.362;2023-11-19T12:15:34;0.93;;;0.22;;
6671;SDS011;3372;48.690;12.362;2023-11-19T12:18:29;1.27;;;0.57;;
6671;SDS011;3372;48.690;12.362;2023-11-19T12:20:58;0.88;;;0.50;;
6671;SDS011;3372;48.690;12.362;2023-11-19T12:23:27;3.22;;;0.43;;
6671;SDS011;3372;48.690;12.362;2023-11-19T12:25:56;1.13;;;0.52;;
6671;SDS011;3372;48.690;12.362;2023-11-19T12:28:23;1.48;;;0.60;;
6671;SDS011;3372;48.690;12.362;2023-11-19T12:30:52;2.13;;;0.32;;
6671;SDS011;3372;48.690;12.362;2023-11-19T12:33:18;2.63;;;0.65;;
6671;SDS011;3372;48.690;12.362;2023-11-19T12:35:47;3.03;;;0.28;;
6671;SDS011;3372;48.690;12.362;2023-11-19T12:38:23;5.43;;;0.43;;
6671;SDS011;3372;48.690;12.362;2023-11-19T12:41:05;1.58;;;0.63;;
6671;SDS011;3372;48.690;12.362;2023-11-19T12:43:32;1.20;;;0.22;;
6671;SDS011;3372;48.690;12.362;2023-11-19T12:45:59;1.13;;;0.20;;
6671;SDS011;3372;48.690;12.362;2023-11-19T12:48:25;2.67;;;0.50;;
6671;SDS011;3372;48.690;12.362;2023-11-19T12:53:21;1.20;;;0.32;;
6671;SDS011;3372;48.690;12.362;2023-11-19T12:58:32;1.13;;;0.28;;
6671;SDS011;3372;48.690;12.362;2023-11-19T13:01:03;2.33;;;0.55;;
6671;SDS011;3372;48.690;12.362;2023-11-19T13:03:33;1.45;;;0.35;;
6671;SDS011;3372;48.690;12.362;2023-11-19T13:08:29;2.45;;;0.22;;
6671;SDS011;3372;48.690;12.362;2023-11-19T13:11:02;1.65;;;0.22;;
6671;SDS011;3372;48.690;12.362;2023-11-19T13:13:28;1.52;;;0.13;;
6671;SDS011;3372;48.690;12.362;2023-11-19T13:16:01;1.23;;;0.38;;
6671;SDS011;3372;48.690;12.362;2023-11-19T13:18:33;1.38;;;0.20;;
6671;SDS011;3372;48.690;12.362;2023-11-19T13:21:01;2.63;;;0.75;;
6671;SDS011;3372;48.690;12.362;2023-11-19T13:23:27;3.58;;;1.05;;
6671;SDS011;3372;48.690;12.362;2023-11-19T13:25:53;2.97;;;1.17;;
6671;SDS011;3372;48.690;12.362;2023-11-19T13:28:18;7.00;;;2.65;;
6671;SDS011;3372;48.690;12.362;2023-11-19T13:30:44;1.88;;;0.63;;
6671;SDS011;3372;48.690;12.362;2023-11-19T13:33:09;1.10;;;0.22;;
6671;SDS011;3372;48.690;12.362;2023-11-19T13:35:37;1.70;;;0.38;;
6671;SDS011;3372;48.690;12.362;2023-11-19T13:38:05;1.05;;;0.30;;
6671;SDS011;3372;48.690;12.362;2023-11-19T13:40:31;1.42;;;0.22;;
6671;SDS011;3372;48.690;12.362;2023-11-19T13:42:56;1.05;;;0.43;;
6671;SDS011;3372;48.690;12.362;2023-11-19T13:45:22;0.82;;;0.22;;
6671;SDS011;3372;48.690;12.362;2023-11-19T13:47:47;0.80;;;0.10;;
6671;SDS011;3372;48.690;12.362;2023-11-19T13:50:14;0.68;;;0.17;;
6671;SDS011;3372;48.690;12.362;2023-11-19T13:52:42;0.82;;;0.20;;
6671;SDS011;3372;48.690;12.362;2023-11-19T13:55:11;3.42;;;1.15;;
6671;SDS011;3372;48.690;12.362;2023-11-19T13:57:37;1.17;;;0.22;;
6671;SDS011;3372;48.690;12.362;2023-11-19T14:00:04;4.05;;;0.43;;
6671;SDS011;3372;48.690;12.362;2023-11-19T14:02:32;1.95;;;0.63;;
6671;SDS011;3372;48.690;12.362;2023-11-19T14:04:58;3.17;;;0.30;;
6671;SDS011;3372;48.690;12.362;2023-11-19T14:07:23;0.70;;;0.20;;
6671;SDS011;3372;48.690;12.362;2023-11-19T14:09:49;1.92;;;0.98;;
6671;SDS011;3372;48.690;12.362;2023-11-19T14:12:15;1.65;;;0.60;;
6671;SDS011;3372;48.690;12.362;2023-11-19T14:14:41;1.00;;;0.32;;
6671;SDS011;3372;48.690;12.362;2023-11-19T14:17:07;1.65;;;0.52;;
6671;SDS011;3372;48.690;12.362;2023-11-19T14:19:33;1.20;;;0.55;;
6671;SDS011;3372;48.690;12.362;2023-11-19T14:21:58;0.93;;;0.22;;
6671;SDS011;3372;48.690;12.362;2023-11-19T14:24:25;1.40;;;0.20;;
6671;SDS011;3372;48.690;12.362;2023-11-19T14:26:51;2.58;;;0.32;;
6671;SDS011;3372;48.690;12.362;2023-11-19T14:29:16;0.93;;;0.28;;
6671;SDS011;3372;48.690;12.362;2023-11-19T14:31:42;1.25;;;0.43;;
6671;SDS011;3372;48.690;12.362;2023-11-19T14:34:08;1.92;;;0.45;;
6671;SDS011;3372;48.690;12.362;2023-11-19T14:36:34;0.88;;;0.30;;
6671;SDS011;3372;48.690;12.362;2023-11-19T14:38:59;0.65;;;0.13;;
6671;SDS011;3372;48.690;12.362;2023-11-19T14:41:25;2.90;;;0.50;;
6671;SDS011;3372;48.690;12.362;2023-11-19T14:43:51;0.90;;;0.30;;
6671;SDS011;3372;48.690;12.362;2023-11-19T14:46:17;0.95;;;0.40;;
6671;SDS011;3372;48.690;12.362;2023-11-19T14:48:43;2.20;;;0.22;;
6671;SDS011;3372;48.690;12.362;2023-11-19T14:51:08;1.40;;;0.93;;
6671;SDS011;3372;48.690;12.362;2023-11-19T14:53:34;1.27;;;0.55;;
6671;SDS011;3372;48.690;12.362;2023-11-19T14:55:59;1.27;;;0.32;;
6671;SDS011;3372;48.690;12.362;2023-11-19T14:58:25;0.77;;;0.30;;
6671;SDS011;3372;48.690;12.362;2023-11-19T15:00:51;0.80;;;0.40;;
6671;SDS011;3372;48.690;12.362;2023-11-19T15:03:17;1.25;;;0.52;;
6671;SDS011;3372;48.690;12.362;2023-11-19T15:05:47;1.85;;;0.93;;
6671;SDS011;3372;48.690;12.362;2023-11-19T15:08:13;1.60;;;0.43;;
6671;SDS011;3372;48.690;12.362;2023-11-19T15:10:41;1.45;;;0.32;;
6671;SDS011;3372;48.690;12.362;2023-11-19T15:13:07;0.95;;;0.35;;
6671;SDS011;3372;48.690;12.362;2023-11-19T15:15:33;1.23;;;0.32;;
6671;SDS011;3372;48.690;12.362;2023-11-19T15:17:59;1.08;;;0.32;;
6671;SDS011;3372;48.690;12.362;2023-11-19T15:20:25;1.02;;;0.40;;
6671;SDS011;3372;48.690;12.362;2023-11-19T15:22:54;1.38;;;0.50;;
6671;SDS011;3372;48.690;12.362;2023-11-19T15:25:20;1.65;;;0.52;;
6671;SDS011;3372;48.690;12.362;2023-11-19T15:27:47;1.45;;;0.43;;
6671;SDS011;3372;48.690;12.362;2023-11-19T15:30:13;0.98;;;0.40;;
6671;SDS011;3372;48.690;12.362;2023-11-19T15:32:39;1.63;;;0.32;;